sensor_id;sensor_type;location;lat;lon;timestamp;P1;P2;P0
79117;PMS7003;68523;51.336;-0.846;2023-08-08T00:00:00;27;26;
79117;PMS7003;68523;51.336;-0.846;2023-08-08T00:03:00;27;26;
79117;PMS7003;68523;51.336;-0.846;2023-08-08T00:06:00;40;36;
79117;PMS7003;68523;51.336;-0.846;2023-08-08T00:09:00;16;16;
79117;PMS7003;68523;51.336;-0.846;2023-08-08T00:12:00;16;16;
79117;PMS7003;68523;51.336;-0.846;2023-08-08T00:15:00;18;16;
79117;PMS7003;68523;51.336;-0.846;2023-08-08T00:18:00;18;16;
79117;PMS7003;68523;51.336;-0.846;2023-08-08T00:21:00;8;8;
79117;PMS7003;68523;51.336;-0.846;2023-08-08T00:24:00;11;11;
79117;PMS7003;68523;51.336;-0.846;2023-08-08T00:27:00;11;11;
79117;PMS7003;68523;51.336;-0.846;2023-08-08T00:30:00;12;12;
79117;PMS7003;68523;51.336;-0.846;2023-08-08T00:33:00;12;12;
79117;PMS7003;68523;51.336;-0.846;2023-08-08T00:36:00;12;12;
79117;PMS7003;68523;51.336;-0.846;2023-08-08T00:39:00;24;24;
79117;PMS7003;68523;51.336;-0.846;2023-08-08T00:42:00;24;24;
79117;PMS7003;68523;51.336;-0.846;2023-08-08T00:45:00;11;9;
79117;PMS7003;68523;51.336;-0.846;2023-08-08T00:48:00;11;9;
79117;PMS7003;68523;51.336;-0.846;2023-08-08T00:51:00;13;13;
79117;PMS7003;68523;51.336;-0.846;2023-08-08T00:54:00;18;16;
79117;PMS7003;68523;51.336;-0.846;2023-08-08T00:57:00;18;16;
79117;PMS7003;68523;51.336;-0.846;2023-08-08T01:00:00;15;15;
79117;PMS7003;68523;51.336;-0.846;2023-08-08T01:03:00;15;15;
79117;PMS7003;68523;51.336;-0.846;2023-08-08T01:06:02;11;9;
79117;PMS7003;68523;51.336;-0.846;2023-08-08T01:09:00;7;7;
79117;PMS7003;68523;51.336;-0.846;2023-08-08T01:12:00;7;7;
79117;PMS7003;68523;51.336;-0.846;2023-08-08T01:15:01;7;7;
79117;PMS7003;68523;51.336;-0.846;2023-08-08T01:18:00;7;7;
79117;PMS7003;68523;51.336;-0.846;2023-08-08T01:21:00;4;4;
79117;PMS7003;68523;51.336;-0.846;2023-08-08T01:24:01;7;6;
79117;PMS7003;68523;51.336;-0.846;2023-08-08T01:27:00;7;6;
79117;PMS7003;68523;51.336;-0.846;2023-08-08T01:30:00;7;5;
79117;PMS7003;68523;51.336;-0.846;2023-08-08T01:33:00;7;5;
79117;PMS7003;68523;51.336;-0.846;2023-08-08T01:36:02;4;4;
79117;PMS7003;68523;51.336;-0.846;2023-08-08T01:39:00;3;3;
79117;PMS7003;68523;51.336;-0.846;2023-08-08T01:42:00;3;3;
79117;PMS7003;68523;51.336;-0.846;2023-08-08T01:45:00;4;4;
79117;PMS7003;68523;51.336;-0.846;2023-08-08T01:48:00;4;4;
79117;PMS7003;68523;51.336;-0.846;2023-08-08T01:51:00;4;3;
79117;PMS7003;68523;51.336;-0.846;2023-08-08T01:54:00;6;4;
79117;PMS7003;68523;51.336;-0.846;2023-08-08T01:57:00;6;4;
79117;PMS7003;68523;51.336;-0.846;2023-08-08T02:00:00;5;5;
79117;PMS7003;68523;51.336;-0.846;2023-08-08T02:03:00;5;5;
79117;PMS7003;68523;51.336;-0.846;2023-08-08T02:06:00;5;5;
79117;PMS7003;68523;51.336;-0.846;2023-08-08T02:09:00;10;10;
79117;PMS7003;68523;51.336;-0.846;2023-08-08T02:12:00;10;10;
79117;PMS7003;68523;51.336;-0.846;2023-08-08T02:15:00;7;7;
79117;PMS7003;68523;51.336;-0.846;2023-08-08T02:18:00;7;7;
79117;PMS7003;68523;51.336;-0.846;2023-08-08T02:21:00;3;3;
79117;PMS7003;68523;51.336;-0.846;2023-08-08T02:24:00;5;5;
79117;PMS7003;68523;51.336;-0.846;2023-08-08T02:27:00;5;5;
79117;PMS7003;68523;51.336;-0.846;2023-08-08T02:30:00;5;3;
79117;PMS7003;68523;51.336;-0.846;2023-08-08T02:33:00;5;3;
79117;PMS7003;68523;51.336;-0.846;2023-08-08T02:36:00;6;3;
79117;PMS7003;68523;51.336;-0.846;2023-08-08T02:39:00;3;3;
79117;PMS7003;68523;51.336;-0.846;2023-08-08T02:42:00;3;3;
79117;PMS7003;68523;51.336;-0.846;2023-08-08T02:45:00;5;4;
79117;PMS7003;68523;51.336;-0.846;2023-08-08T02:48:00;5;4;
79117;PMS7003;68523;51.336;-0.846;2023-08-08T02:51:00;5;5;
79117;PMS7003;68523;51.336;-0.846;2023-08-08T02:54:00;15;14;
79117;PMS7003;68523;51.336;-0.846;2023-08-08T02:57:00;15;14;
79117;PMS7003;68523;51.336;-0.846;2023-08-08T03:00:00;19;19;
79117;PMS7003;68523;51.336;-0.846;2023-08-08T03:03:00;19;19;
79117;PMS7003;68523;51.336;-0.846;2023-08-08T03:06:00;35;34;
79117;PMS7003;68523;51.336;-0.846;2023-08-08T03:09:00;38;36;
79117;PMS7003;68523;51.336;-0.846;2023-08-08T03:12:00;38;36;
79117;PMS7003;68523;51.336;-0.846;2023-08-08T03:15:00;48;39;
79117;PMS7003;68523;51.336;-0.846;2023-08-08T03:18:00;48;39;
79117;PMS7003;68523;51.336;-0.846;2023-08-08T03:21:00;57;49;
79117;PMS7003;68523;51.336;-0.846;2023-08-08T03:24:00;52;43;
79117;PMS7003;68523;51.336;-0.846;2023-08-08T03:27:00;52;43;
79117;PMS7003;68523;51.336;-0.846;2023-08-08T03:30:00;70;58;
79117;PMS7003;68523;51.336;-0.846;2023-08-08T03:33:00;70;58;
79117;PMS7003;68523;51.336;-0.846;2023-08-08T03:36:00;71;58;
79117;PMS7003;68523;51.336;-0.846;2023-08-08T03:39:00;45;39;
79117;PMS7003;68523;51.336;-0.846;2023-08-08T03:42:00;45;39;
79117;PMS7003;68523;51.336;-0.846;2023-08-08T03:45:01;64;53;
79117;PMS7003;68523;51.336;-0.846;2023-08-08T03:48:00;64;53;
79117;PMS7003;68523;51.336;-0.846;2023-08-08T03:51:00;69;56;
79117;PMS7003;68523;51.336;-0.846;2023-08-08T03:54:00;66;54;
79117;PMS7003;68523;51.336;-0.846;2023-08-08T03:57:00;66;54;
79117;PMS7003;68523;51.336;-0.846;2023-08-08T04:00:00;63;52;
79117;PMS7003;68523;51.336;-0.846;2023-08-08T04:03:00;63;52;
79117;PMS7003;68523;51.336;-0.846;2023-08-08T04:06:00;73;61;
79117;PMS7003;68523;51.336;-0.846;2023-08-08T04:09:00;72;58;
79117;PMS7003;68523;51.336;-0.846;2023-08-08T04:12:00;72;58;
79117;PMS7003;68523;51.336;-0.846;2023-08-08T04:15:00;77;66;
79117;PMS7003;68523;51.336;-0.846;2023-08-08T04:18:00;77;66;
79117;PMS7003;68523;51.336;-0.846;2023-08-08T04:21:00;77;66;
79117;PMS7003;68523;51.336;-0.846;2023-08-08T04:24:00;75;65;
79117;PMS7003;68523;51.336;-0.846;2023-08-08T04:27:00;75;65;
79117;PMS7003;68523;51.336;-0.846;2023-08-08T04:30:00;74;61;
79117;PMS7003;68523;51.336;-0.846;2023-08-08T04:33:00;74;61;
79117;PMS7003;68523;51.336;-0.846;2023-08-08T04:36:00;72;59;
79117;PMS7003;68523;51.336;-0.846;2023-08-08T04:39:00;62;52;
79117;PMS7003;68523;51.336;-0.846;2023-08-08T04:42:00;62;52;
79117;PMS7003;68523;51.336;-0.846;2023-08-08T04:45:00;56;47;
79117;PMS7003;68523;51.336;-0.846;2023-08-08T04:48:00;56;47;
79117;PMS7003;68523;51.336;-0.846;2023-08-08T04:51:00;71;58;
79117;PMS7003;68523;51.336;-0.846;2023-08-08T04:54:00;71;57;
79117;PMS7003;68523;51.336;-0.846;2023-08-08T04:57:00;71;57;
79117;PMS7003;68523;51.336;-0.846;2023-08-08T05:00:00;59;49;
79117;PMS7003;68523;51.336;-0.846;2023-08-08T05:03:00;59;49;
79117;PMS7003;68523;51.336;-0.846;2023-08-08T05:06:00;48;42;
79117;PMS7003;68523;51.336;-0.846;2023-08-08T05:09:00;74;62;
79117;PMS7003;68523;51.336;-0.846;2023-08-08T05:12:00;74;62;
79117;PMS7003;68523;51.336;-0.846;2023-08-08T05:15:00;85;81;
79117;PMS7003;68523;51.336;-0.846;2023-08-08T05:18:00;85;81;
79117;PMS7003;68523;51.336;-0.846;2023-08-08T05:21:00;88;86;
79117;PMS7003;68523;51.336;-0.846;2023-08-08T05:24:00;78;67;
79117;PMS7003;68523;51.336;-0.846;2023-08-08T05:27:00;78;67;
79117;PMS7003;68523;51.336;-0.846;2023-08-08T05:30:00;87;87;
79117;PMS7003;68523;51.336;-0.846;2023-08-08T05:33:00;87;87;
79117;PMS7003;68523;51.336;-0.846;2023-08-08T05:36:00;73;61;
79117;PMS7003;68523;51.336;-0.846;2023-08-08T05:39:00;71;57;
79117;PMS7003;68523;51.336;-0.846;2023-08-08T05:42:00;71;57;
79117;PMS7003;68523;51.336;-0.846;2023-08-08T05:45:00;49;42;
79117;PMS7003;68523;51.336;-0.846;2023-08-08T05:48:00;49;42;
79117;PMS7003;68523;51.336;-0.846;2023-08-08T05:51:00;52;44;
79117;PMS7003;68523;51.336;-0.846;2023-08-08T05:54:00;49;43;
79117;PMS7003;68523;51.336;-0.846;2023-08-08T05:57:01;49;43;
79117;PMS7003;68523;51.336;-0.846;2023-08-08T06:00:00;47;40;
79117;PMS7003;68523;51.336;-0.846;2023-08-08T06:03:00;47;40;
79117;PMS7003;68523;51.336;-0.846;2023-08-08T06:06:00;48;39;
79117;PMS7003;68523;51.336;-0.846;2023-08-08T06:09:00;59;49;
79117;PMS7003;68523;51.336;-0.846;2023-08-08T06:12:00;59;49;
79117;PMS7003;68523;51.336;-0.846;2023-08-08T06:15:00;58;49;
79117;PMS7003;68523;51.336;-0.846;2023-08-08T06:18:00;58;49;
79117;PMS7003;68523;51.336;-0.846;2023-08-08T06:21:00;28;28;
79117;PMS7003;68523;51.336;-0.846;2023-08-08T06:24:00;29;29;
79117;PMS7003;68523;51.336;-0.846;2023-08-08T06:27:00;29;29;
79117;PMS7003;68523;51.336;-0.846;2023-08-08T06:30:00;35;34;
79117;PMS7003;68523;51.336;-0.846;2023-08-08T06:33:00;35;34;
79117;PMS7003;68523;51.336;-0.846;2023-08-08T06:36:00;29;29;
79117;PMS7003;68523;51.336;-0.846;2023-08-08T06:39:00;43;38;
79117;PMS7003;68523;51.336;-0.846;2023-08-08T06:42:00;43;38;
79117;PMS7003;68523;51.336;-0.846;2023-08-08T06:45:00;49;43;
79117;PMS7003;68523;51.336;-0.846;2023-08-08T06:48:00;49;43;
79117;PMS7003;68523;51.336;-0.846;2023-08-08T06:51:00;68;56;
79117;PMS7003;68523;51.336;-0.846;2023-08-08T06:54:00;68;56;
79117;PMS7003;68523;51.336;-0.846;2023-08-08T06:57:00;68;56;
79117;PMS7003;68523;51.336;-0.846;2023-08-08T07:00:00;80;74;
79117;PMS7003;68523;51.336;-0.846;2023-08-08T07:03:00;80;74;
79117;PMS7003;68523;51.336;-0.846;2023-08-08T07:06:00;80;71;
79117;PMS7003;68523;51.336;-0.846;2023-08-08T07:09:00;86;81;
79117;PMS7003;68523;51.336;-0.846;2023-08-08T07:12:00;86;81;
79117;PMS7003;68523;51.336;-0.846;2023-08-08T07:15:00;87;87;
79117;PMS7003;68523;51.336;-0.846;2023-08-08T07:18:00;87;87;
79117;PMS7003;68523;51.336;-0.846;2023-08-08T07:21:00;81;75;
79117;PMS7003;68523;51.336;-0.846;2023-08-08T07:24:00;81;75;
79117;PMS7003;68523;51.336;-0.846;2023-08-08T07:27:00;83;76;
79117;PMS7003;68523;51.336;-0.846;2023-08-08T07:30:00;82;74;
79117;PMS7003;68523;51.336;-0.846;2023-08-08T07:33:00;82;74;
79117;PMS7003;68523;51.336;-0.846;2023-08-08T07:36:00;81;72;
79117;PMS7003;68523;51.336;-0.846;2023-08-08T07:39:00;81;72;
79117;PMS7003;68523;51.336;-0.846;2023-08-08T07:42:00;83;76;
79117;PMS7003;68523;51.336;-0.846;2023-08-08T07:45:00;85;80;
79117;PMS7003;68523;51.336;-0.846;2023-08-08T07:51:00;unavailable;unavailable;
79117;PMS7003;68523;51.336;-0.846;2023-08-08T07:54:00;82;71;
79117;PMS7003;68523;51.336;-0.846;2023-08-08T07:57:00;62;51;
79117;PMS7003;68523;51.336;-0.846;2023-08-08T08:00:00;77;66;
79117;PMS7003;68523;51.336;-0.846;2023-08-08T08:03:00;77;66;
79117;PMS7003;68523;51.336;-0.846;2023-08-08T08:06:00;65;54;
79117;PMS7003;68523;51.336;-0.846;2023-08-08T08:09:00;65;54;
79117;PMS7003;68523;51.336;-0.846;2023-08-08T08:12:00;43;39;
79117;PMS7003;68523;51.336;-0.846;2023-08-08T08:15:00;61;51;
79117;PMS7003;68523;51.336;-0.846;2023-08-08T08:18:00;61;51;
79117;PMS7003;68523;51.336;-0.846;2023-08-08T08:21:00;51;45;
79117;PMS7003;68523;51.336;-0.846;2023-08-08T08:24:00;51;45;
79117;PMS7003;68523;51.336;-0.846;2023-08-08T08:27:00;44;39;
79117;PMS7003;68523;51.336;-0.846;2023-08-08T08:30:00;49;42;
79117;PMS7003;68523;51.336;-0.846;2023-08-08T08:33:00;49;42;
79117;PMS7003;68523;51.336;-0.846;2023-08-08T08:36:00;46;39;
79117;PMS7003;68523;51.336;-0.846;2023-08-08T08:39:00;46;39;
79117;PMS7003;68523;51.336;-0.846;2023-08-08T08:42:00;68;55;
79117;PMS7003;68523;51.336;-0.846;2023-08-08T08:45:01;66;53;
79117;PMS7003;68523;51.336;-0.846;2023-08-08T08:48:00;66;53;
79117;PMS7003;68523;51.336;-0.846;2023-08-08T08:51:00;44;40;
79117;PMS7003;68523;51.336;-0.846;2023-08-08T08:54:00;44;40;
79117;PMS7003;68523;51.336;-0.846;2023-08-08T08:57:00;60;50;
79117;PMS7003;68523;51.336;-0.846;2023-08-08T09:00:00;67;54;
79117;PMS7003;68523;51.336;-0.846;2023-08-08T09:03:00;67;54;
79117;PMS7003;68523;51.336;-0.846;2023-08-08T09:06:00;60;49;
79117;PMS7003;68523;51.336;-0.846;2023-08-08T09:09:00;60;49;
79117;PMS7003;68523;51.336;-0.846;2023-08-08T09:12:01;62;51;
79117;PMS7003;68523;51.336;-0.846;2023-08-08T09:15:01;73;61;
79117;PMS7003;68523;51.336;-0.846;2023-08-08T09:18:00;73;61;
79117;PMS7003;68523;51.336;-0.846;2023-08-08T09:21:00;65;54;
79117;PMS7003;68523;51.336;-0.846;2023-08-08T09:24:00;65;54;
79117;PMS7003;68523;51.336;-0.846;2023-08-08T09:27:00;77;65;
79117;PMS7003;68523;51.336;-0.846;2023-08-08T09:30:00;78;70;
79117;PMS7003;68523;51.336;-0.846;2023-08-08T09:33:00;78;70;
79117;PMS7003;68523;51.336;-0.846;2023-08-08T09:36:00;94;93;
79117;PMS7003;68523;51.336;-0.846;2023-08-08T09:39:00;94;93;
79117;PMS7003;68523;51.336;-0.846;2023-08-08T09:42:01;66;53;
79117;PMS7003;68523;51.336;-0.846;2023-08-08T09:45:00;82;77;
79117;PMS7003;68523;51.336;-0.846;2023-08-08T09:48:00;82;77;
79117;PMS7003;68523;51.336;-0.846;2023-08-08T09:51:00;70;60;
79117;PMS7003;68523;51.336;-0.846;2023-08-08T09:54:00;70;60;
79117;PMS7003;68523;51.336;-0.846;2023-08-08T09:57:00;52;43;
79117;PMS7003;68523;51.336;-0.846;2023-08-08T10:00:00;15;15;
79117;PMS7003;68523;51.336;-0.846;2023-08-08T10:03:00;15;15;
79117;PMS7003;68523;51.336;-0.846;2023-08-08T10:06:00;55;45;
79117;PMS7003;68523;51.336;-0.846;2023-08-08T10:09:01;55;45;
79117;PMS7003;68523;51.336;-0.846;2023-08-08T10:12:00;24;23;
79117;PMS7003;68523;51.336;-0.846;2023-08-08T10:15:00;30;30;
79117;PMS7003;68523;51.336;-0.846;2023-08-08T10:18:00;30;30;
79117;PMS7003;68523;51.336;-0.846;2023-08-08T10:21:00;24;23;
79117;PMS7003;68523;51.336;-0.846;2023-08-08T10:24:00;24;23;
79117;PMS7003;68523;51.336;-0.846;2023-08-08T10:27:01;36;32;
79117;PMS7003;68523;51.336;-0.846;2023-08-08T10:30:02;73;63;
79117;PMS7003;68523;51.336;-0.846;2023-08-08T10:33:00;73;63;
79117;PMS7003;68523;51.336;-0.846;2023-08-08T10:36:00;75;66;
79117;PMS7003;68523;51.336;-0.846;2023-08-08T10:39:00;75;66;
79117;PMS7003;68523;51.336;-0.846;2023-08-08T10:42:01;55;46;
79117;PMS7003;68523;51.336;-0.846;2023-08-08T10:45:00;65;53;
79117;PMS7003;68523;51.336;-0.846;2023-08-08T10:48:07;65;53;
79117;PMS7003;68523;51.336;-0.846;2023-08-08T10:51:00;76;68;
79117;PMS7003;68523;51.336;-0.846;2023-08-08T10:54:02;76;68;
79117;PMS7003;68523;51.336;-0.846;2023-08-08T10:57:00;60;50;
79117;PMS7003;68523;51.336;-0.846;2023-08-08T11:03:00;64;54;
79117;PMS7003;68523;51.336;-0.846;2023-08-08T11:06:00;61;51;
79117;PMS7003;68523;51.336;-0.846;2023-08-08T11:09:00;61;51;
79117;PMS7003;68523;51.336;-0.846;2023-08-08T11:12:00;46;39;
79117;PMS7003;68523;51.336;-0.846;2023-08-08T11:15:00;55;45;
79117;PMS7003;68523;51.336;-0.846;2023-08-08T11:18:00;55;45;
79117;PMS7003;68523;51.336;-0.846;2023-08-08T11:21:00;80;73;
79117;PMS7003;68523;51.336;-0.846;2023-08-08T11:24:00;80;73;
79117;PMS7003;68523;51.336;-0.846;2023-08-08T11:27:00;60;49;
79117;PMS7003;68523;51.336;-0.846;2023-08-08T11:30:00;72;61;
79117;PMS7003;68523;51.336;-0.846;2023-08-08T11:33:00;72;61;
79117;PMS7003;68523;51.336;-0.846;2023-08-08T11:36:00;80;72;
79117;PMS7003;68523;51.336;-0.846;2023-08-08T11:39:01;80;72;
79117;PMS7003;68523;51.336;-0.846;2023-08-08T11:42:00;86;82;
79117;PMS7003;68523;51.336;-0.846;2023-08-08T11:45:00;82;80;
79117;PMS7003;68523;51.336;-0.846;2023-08-08T11:48:00;82;80;
79117;PMS7003;68523;51.336;-0.846;2023-08-08T11:51:00;83;79;
79117;PMS7003;68523;51.336;-0.846;2023-08-08T11:54:01;83;79;
79117;PMS7003;68523;51.336;-0.846;2023-08-08T11:57:00;81;75;
79117;PMS7003;68523;51.336;-0.846;2023-08-08T12:00:00;87;87;
79117;PMS7003;68523;51.336;-0.846;2023-08-08T12:03:00;87;87;
79117;PMS7003;68523;51.336;-0.846;2023-08-08T12:06:00;85;79;
79117;PMS7003;68523;51.336;-0.846;2023-08-08T12:09:00;85;79;
79117;PMS7003;68523;51.336;-0.846;2023-08-08T12:12:00;82;79;
79117;PMS7003;68523;51.336;-0.846;2023-08-08T12:15:02;82;78;
79117;PMS7003;68523;51.336;-0.846;2023-08-08T12:18:00;82;78;
79117;PMS7003;68523;51.336;-0.846;2023-08-08T12:21:00;82;77;
79117;PMS7003;68523;51.336;-0.846;2023-08-08T12:24:00;82;77;
79117;PMS7003;68523;51.336;-0.846;2023-08-08T12:27:00;83;79;
79117;PMS7003;68523;51.336;-0.846;2023-08-08T12:30:00;80;73;
79117;PMS7003;68523;51.336;-0.846;2023-08-08T12:33:00;80;73;
79117;PMS7003;68523;51.336;-0.846;2023-08-08T12:36:00;78;68;
79117;PMS7003;68523;51.336;-0.846;2023-08-08T12:39:00;78;68;
79117;PMS7003;68523;51.336;-0.846;2023-08-08T12:42:00;81;73;
79117;PMS7003;68523;51.336;-0.846;2023-08-08T12:45:00;79;71;
79117;PMS7003;68523;51.336;-0.846;2023-08-08T12:48:00;79;71;
79117;PMS7003;68523;51.336;-0.846;2023-08-08T12:51:00;80;69;
79117;PMS7003;68523;51.336;-0.846;2023-08-08T12:54:00;80;69;
79117;PMS7003;68523;51.336;-0.846;2023-08-08T12:57:00;78;69;
79117;PMS7003;68523;51.336;-0.846;2023-08-08T13:00:00;77;68;
79117;PMS7003;68523;51.336;-0.846;2023-08-08T13:03:00;77;68;
79117;PMS7003;68523;51.336;-0.846;2023-08-08T13:06:00;79;72;
79117;PMS7003;68523;51.336;-0.846;2023-08-08T13:09:00;79;72;
79117;PMS7003;68523;51.336;-0.846;2023-08-08T13:12:00;72;63;
79117;PMS7003;68523;51.336;-0.846;2023-08-08T13:15:00;79;72;
79117;PMS7003;68523;51.336;-0.846;2023-08-08T13:18:00;79;72;
79117;PMS7003;68523;51.336;-0.846;2023-08-08T13:21:00;78;71;
79117;PMS7003;68523;51.336;-0.846;2023-08-08T13:24:00;78;71;
79117;PMS7003;68523;51.336;-0.846;2023-08-08T13:27:00;78;67;
79117;PMS7003;68523;51.336;-0.846;2023-08-08T13:30:00;82;75;
79117;PMS7003;68523;51.336;-0.846;2023-08-08T13:33:00;82;75;
79117;PMS7003;68523;51.336;-0.846;2023-08-08T13:36:00;82;79;
79117;PMS7003;68523;51.336;-0.846;2023-08-08T13:39:00;82;79;
79117;PMS7003;68523;51.336;-0.846;2023-08-08T13:42:00;81;74;
79117;PMS7003;68523;51.336;-0.846;2023-08-08T13:45:00;80;74;
79117;PMS7003;68523;51.336;-0.846;2023-08-08T13:48:00;80;74;
79117;PMS7003;68523;51.336;-0.846;2023-08-08T13:51:00;72;62;
79117;PMS7003;68523;51.336;-0.846;2023-08-08T13:54:00;72;62;
79117;PMS7003;68523;51.336;-0.846;2023-08-08T13:57:00;82;78;
79117;PMS7003;68523;51.336;-0.846;2023-08-08T14:00:00;82;76;
79117;PMS7003;68523;51.336;-0.846;2023-08-08T14:03:00;82;76;
79117;PMS7003;68523;51.336;-0.846;2023-08-08T14:06:00;84;80;
79117;PMS7003;68523;51.336;-0.846;2023-08-08T14:09:00;84;80;
79117;PMS7003;68523;51.336;-0.846;2023-08-08T14:12:00;79;70;
79117;PMS7003;68523;51.336;-0.846;2023-08-08T14:15:00;79;70;
79117;PMS7003;68523;51.336;-0.846;2023-08-08T14:18:00;79;70;
79117;PMS7003;68523;51.336;-0.846;2023-08-08T14:21:00;100;94;
79117;PMS7003;68523;51.336;-0.846;2023-08-08T14:24:00;100;94;
79117;PMS7003;68523;51.336;-0.846;2023-08-08T14:27:00;77;70;
79117;PMS7003;68523;51.336;-0.846;2023-08-08T14:30:00;80;75;
79117;PMS7003;68523;51.336;-0.846;2023-08-08T14:33:00;80;75;
79117;PMS7003;68523;51.336;-0.846;2023-08-08T14:36:00;79;68;
79117;PMS7003;68523;51.336;-0.846;2023-08-08T14:39:00;79;68;
79117;PMS7003;68523;51.336;-0.846;2023-08-08T14:42:00;81;72;
79117;PMS7003;68523;51.336;-0.846;2023-08-08T14:45:00;83;79;
79117;PMS7003;68523;51.336;-0.846;2023-08-08T14:48:00;83;79;
79117;PMS7003;68523;51.336;-0.846;2023-08-08T14:51:01;84;82;
79117;PMS7003;68523;51.336;-0.846;2023-08-08T14:54:00;84;82;
79117;PMS7003;68523;51.336;-0.846;2023-08-08T14:57:00;81;77;
79117;PMS7003;68523;51.336;-0.846;2023-08-08T15:00:00;81;76;
79117;PMS7003;68523;51.336;-0.846;2023-08-08T15:03:00;81;76;
79117;PMS7003;68523;51.336;-0.846;2023-08-08T15:06:00;81;75;
79117;PMS7003;68523;51.336;-0.846;2023-08-08T15:09:00;81;75;
79117;PMS7003;68523;51.336;-0.846;2023-08-08T15:12:00;82;79;
79117;PMS7003;68523;51.336;-0.846;2023-08-08T15:15:00;85;80;
79117;PMS7003;68523;51.336;-0.846;2023-08-08T15:18:00;85;80;
79117;PMS7003;68523;51.336;-0.846;2023-08-08T15:21:00;84;80;
79117;PMS7003;68523;51.336;-0.846;2023-08-08T15:24:00;84;80;
79117;PMS7003;68523;51.336;-0.846;2023-08-08T15:27:00;88;87;
79117;PMS7003;68523;51.336;-0.846;2023-08-08T15:30:00;84;81;
79117;PMS7003;68523;51.336;-0.846;2023-08-08T15:33:00;84;81;
79117;PMS7003;68523;51.336;-0.846;2023-08-08T15:36:00;80;75;
79117;PMS7003;68523;51.336;-0.846;2023-08-08T15:39:00;80;75;
79117;PMS7003;68523;51.336;-0.846;2023-08-08T15:42:00;82;78;
79117;PMS7003;68523;51.336;-0.846;2023-08-08T15:45:00;82;77;
79117;PMS7003;68523;51.336;-0.846;2023-08-08T15:48:00;82;77;
79117;PMS7003;68523;51.336;-0.846;2023-08-08T15:51:00;82;74;
79117;PMS7003;68523;51.336;-0.846;2023-08-08T15:54:00;82;74;
79117;PMS7003;68523;51.336;-0.846;2023-08-08T15:57:00;83;75;
79117;PMS7003;68523;51.336;-0.846;2023-08-08T16:00:00;83;75;
79117;PMS7003;68523;51.336;-0.846;2023-08-08T16:03:00;86;85;
79117;PMS7003;68523;51.336;-0.846;2023-08-08T16:06:00;83;77;
79117;PMS7003;68523;51.336;-0.846;2023-08-08T16:09:00;83;77;
79117;PMS7003;68523;51.336;-0.846;2023-08-08T16:12:00;82;79;
79117;PMS7003;68523;51.336;-0.846;2023-08-08T16:15:00;82;79;
79117;PMS7003;68523;51.336;-0.846;2023-08-08T16:18:00;90;85;
79117;PMS7003;68523;51.336;-0.846;2023-08-08T16:21:00;86;82;
79117;PMS7003;68523;51.336;-0.846;2023-08-08T16:24:00;86;82;
79117;PMS7003;68523;51.336;-0.846;2023-08-08T16:27:00;84;82;
79117;PMS7003;68523;51.336;-0.846;2023-08-08T16:30:00;84;82;
79117;PMS7003;68523;51.336;-0.846;2023-08-08T16:33:00;87;84;
79117;PMS7003;68523;51.336;-0.846;2023-08-08T16:36:00;84;81;
79117;PMS7003;68523;51.336;-0.846;2023-08-08T16:39:00;84;81;
79117;PMS7003;68523;51.336;-0.846;2023-08-08T16:42:00;88;86;
79117;PMS7003;68523;51.336;-0.846;2023-08-08T16:45:00;88;86;
79117;PMS7003;68523;51.336;-0.846;2023-08-08T16:48:00;87;87;
79117;PMS7003;68523;51.336;-0.846;2023-08-08T16:51:00;90;86;
79117;PMS7003;68523;51.336;-0.846;2023-08-08T16:54:00;90;86;
79117;PMS7003;68523;51.336;-0.846;2023-08-08T16:57:00;92;89;
79117;PMS7003;68523;51.336;-0.846;2023-08-08T17:00:00;92;89;
79117;PMS7003;68523;51.336;-0.846;2023-08-08T17:03:00;81;77;
79117;PMS7003;68523;51.336;-0.846;2023-08-08T17:06:00;83;80;
79117;PMS7003;68523;51.336;-0.846;2023-08-08T17:09:00;83;80;
79117;PMS7003;68523;51.336;-0.846;2023-08-08T17:12:00;85;83;
79117;PMS7003;68523;51.336;-0.846;2023-08-08T17:15:00;85;83;
79117;PMS7003;68523;51.336;-0.846;2023-08-08T17:18:00;100;98;
79117;PMS7003;68523;51.336;-0.846;2023-08-08T17:21:00;102;98;
79117;PMS7003;68523;51.336;-0.846;2023-08-08T17:24:00;102;98;
79117;PMS7003;68523;51.336;-0.846;2023-08-08T17:27:00;95;92;
79117;PMS7003;68523;51.336;-0.846;2023-08-08T17:30:00;95;92;
79117;PMS7003;68523;51.336;-0.846;2023-08-08T17:33:00;104;100;
79117;PMS7003;68523;51.336;-0.846;2023-08-08T17:36:00;97;95;
79117;PMS7003;68523;51.336;-0.846;2023-08-08T17:39:00;97;95;
79117;PMS7003;68523;51.336;-0.846;2023-08-08T17:42:00;97;94;
79117;PMS7003;68523;51.336;-0.846;2023-08-08T17:45:00;97;94;
79117;PMS7003;68523;51.336;-0.846;2023-08-08T17:48:00;92;88;
79117;PMS7003;68523;51.336;-0.846;2023-08-08T17:51:00;94;91;
79117;PMS7003;68523;51.336;-0.846;2023-08-08T17:54:00;94;91;
79117;PMS7003;68523;51.336;-0.846;2023-08-08T17:57:00;90;89;
79117;PMS7003;68523;51.336;-0.846;2023-08-08T18:00:00;90;89;
79117;PMS7003;68523;51.336;-0.846;2023-08-08T18:03:00;86;81;
79117;PMS7003;68523;51.336;-0.846;2023-08-08T18:06:00;101;98;
79117;PMS7003;68523;51.336;-0.846;2023-08-08T18:09:00;101;98;
79117;PMS7003;68523;51.336;-0.846;2023-08-08T18:12:00;92;90;
79117;PMS7003;68523;51.336;-0.846;2023-08-08T18:15:00;92;90;
79117;PMS7003;68523;51.336;-0.846;2023-08-08T18:18:00;86;84;
79117;PMS7003;68523;51.336;-0.846;2023-08-08T18:21:00;88;83;
79117;PMS7003;68523;51.336;-0.846;2023-08-08T18:24:00;88;83;
79117;PMS7003;68523;51.336;-0.846;2023-08-08T18:27:00;82;79;
79117;PMS7003;68523;51.336;-0.846;2023-08-08T18:30:00;82;79;
79117;PMS7003;68523;51.336;-0.846;2023-08-08T18:33:00;80;76;
79117;PMS7003;68523;51.336;-0.846;2023-08-08T18:36:00;89;85;
79117;PMS7003;68523;51.336;-0.846;2023-08-08T18:39:00;89;85;
79117;PMS7003;68523;51.336;-0.846;2023-08-08T18:42:00;91;90;
79117;PMS7003;68523;51.336;-0.846;2023-08-08T18:45:00;91;90;
79117;PMS7003;68523;51.336;-0.846;2023-08-08T18:48:00;94;92;
79117;PMS7003;68523;51.336;-0.846;2023-08-08T18:51:00;95;92;
79117;PMS7003;68523;51.336;-0.846;2023-08-08T18:54:00;95;92;
79117;PMS7003;68523;51.336;-0.846;2023-08-08T18:57:00;94;91;
79117;PMS7003;68523;51.336;-0.846;2023-08-08T19:00:00;94;91;
79117;PMS7003;68523;51.336;-0.846;2023-08-08T19:03:00;101;97;
79117;PMS7003;68523;51.336;-0.846;2023-08-08T19:06:00;108;99;
79117;PMS7003;68523;51.336;-0.846;2023-08-08T19:09:00;108;99;
79117;PMS7003;68523;51.336;-0.846;2023-08-08T19:12:00;110;106;
79117;PMS7003;68523;51.336;-0.846;2023-08-08T19:15:00;110;106;
79117;PMS7003;68523;51.336;-0.846;2023-08-08T19:18:00;112;110;
79117;PMS7003;68523;51.336;-0.846;2023-08-08T19:21:00;123;121;
79117;PMS7003;68523;51.336;-0.846;2023-08-08T19:24:00;123;121;
79117;PMS7003;68523;51.336;-0.846;2023-08-08T19:27:00;131;130;
79117;PMS7003;68523;51.336;-0.846;2023-08-08T19:30:00;131;130;
79117;PMS7003;68523;51.336;-0.846;2023-08-08T19:33:00;143;139;
79117;PMS7003;68523;51.336;-0.846;2023-08-08T19:36:00;158;155;
79117;PMS7003;68523;51.336;-0.846;2023-08-08T19:39:00;158;155;